createdAt,value
2022-08-25T00:01:23.099Z,18.10
2022-08-25T00:03:55.218Z,18.10
2022-08-25T00:06:24.766Z,18.00
2022-08-25T00:08:52.662Z,18.00
2022-08-25T00:11:23.977Z,17.90
2022-08-25T00:13:54.129Z,17.90
2022-08-25T00:16:22.830Z,17.80
2022-08-25T00:18:52.044Z,17.80
2022-08-25T00:21:20.084Z,17.70
2022-08-25T00:23:47.610Z,17.70
2022-08-25T00:26:15.715Z,17.60
2022-08-25T00:28:44.246Z,17.70
2022-08-25T00:31:13.455Z,17.60
2022-08-25T00:33:41.001Z,17.60
2022-08-25T00:36:09.628Z,17.60
2022-08-25T00:38:37.742Z,17.60
2022-08-25T00:41:06.077Z,17.60
2022-08-25T00:43:42.771Z,17.60
2022-08-25T00:46:10.861Z,17.50
2022-08-25T00:48:39.021Z,17.50
2022-08-25T00:51:07.663Z,17.50
2022-08-25T00:53:35.613Z,17.50
2022-08-25T00:56:03.199Z,17.50
2022-08-25T00:58:31.959Z,17.50
2022-08-25T01:00:59.904Z,17.40
2022-08-25T01:03:32.929Z,17.50
2022-08-25T01:06:04.283Z,17.50
2022-08-25T01:08:32.475Z,17.40
2022-08-25T01:11:02.674Z,17.50
2022-08-25T01:13:41.104Z,17.40
2022-08-25T01:16:08.883Z,17.40
2022-08-25T01:18:48.413Z,17.30
2022-08-25T01:21:15.947Z,17.30
2022-08-25T01:23:43.307Z,17.30
2022-08-25T01:26:13.261Z,17.20
2022-08-25T01:29:01.990Z,17.20
2022-08-25T01:31:30.150Z,17.20
2022-08-25T01:33:58.515Z,17.20
2022-08-25T01:36:26.639Z,17.10
2022-08-25T01:38:54.396Z,17.10
2022-08-25T01:41:27.854Z,17.00
2022-08-25T01:43:55.298Z,17.00
2022-08-25T01:46:22.772Z,17.00
2022-08-25T01:48:50.210Z,16.90
2022-08-25T01:51:19.514Z,16.90
2022-08-25T01:53:46.948Z,16.80
2022-08-25T01:56:15.816Z,16.80
2022-08-25T01:58:46.115Z,16.70
2022-08-25T02:01:16.091Z,16.70
2022-08-25T02:03:45.118Z,16.60
2022-08-25T02:06:14.994Z,16.60
2022-08-25T02:08:42.628Z,16.50
2022-08-25T02:11:13.822Z,16.50
2022-08-25T02:13:42.222Z,16.50
2022-08-25T02:16:10.540Z,16.50
2022-08-25T02:18:37.967Z,16.50
2022-08-25T02:21:05.407Z,16.40
2022-08-25T02:23:32.742Z,16.40
2022-08-25T02:26:00.601Z,16.40
2022-08-25T02:28:28.006Z,16.40
2022-08-25T02:31:01.115Z,16.40
2022-08-25T02:33:29.068Z,16.40
2022-08-25T02:36:00.208Z,16.40
2022-08-25T02:38:28.554Z,16.30
2022-08-25T02:40:56.973Z,16.40
2022-08-25T02:43:25.698Z,16.40
2022-08-25T02:45:53.449Z,16.40
2022-08-25T02:48:21.733Z,16.30
2022-08-25T02:50:51.061Z,16.30
2022-08-25T02:53:20.410Z,16.30
2022-08-25T02:55:47.826Z,16.40
2022-08-25T02:58:15.435Z,16.30
2022-08-25T03:00:43.167Z,16.40
2022-08-25T03:03:10.603Z,16.30
2022-08-25T03:05:38.058Z,16.30
2022-08-25T03:08:06.411Z,16.30
2022-08-25T03:10:34.430Z,16.30
2022-08-25T03:13:01.830Z,16.30
2022-08-25T03:15:30.571Z,16.30
2022-08-25T03:18:02.761Z,16.30
2022-08-25T03:20:35.658Z,16.30
2022-08-25T03:23:03.542Z,16.30
2022-08-25T03:25:49.576Z,16.30
2022-08-25T03:28:17.696Z,16.30
2022-08-25T03:30:45.093Z,16.20
2022-08-25T03:33:12.484Z,16.30
2022-08-25T03:35:40.849Z,16.20
2022-08-25T03:38:08.293Z,16.20
2022-08-25T03:40:35.680Z,16.20
2022-08-25T03:43:03.816Z,16.20
2022-08-25T03:45:31.179Z,16.20
2022-08-25T03:47:58.567Z,16.20
2022-08-25T03:50:25.911Z,16.20
2022-08-25T03:52:54.699Z,16.10
2022-08-25T03:55:23.330Z,16.10
2022-08-25T03:57:51.499Z,16.10
2022-08-25T04:00:18.890Z,16.10
2022-08-25T04:02:46.988Z,16.10
2022-08-25T04:05:15.801Z,16.00
2022-08-25T04:07:43.334Z,16.10
2022-08-25T04:10:10.917Z,16.00
2022-08-25T04:12:38.391Z,16.00
2022-08-25T04:15:07.482Z,16.00
2022-08-25T04:17:37.777Z,15.90
2022-08-25T04:20:06.064Z,15.90
2022-08-25T04:22:33.667Z,15.90
2022-08-25T04:25:05.829Z,15.90
2022-08-25T04:27:33.136Z,15.90
2022-08-25T04:30:00.545Z,15.90
2022-08-25T04:32:28.433Z,15.90
2022-08-25T04:34:55.874Z,15.80
2022-08-25T04:37:23.181Z,15.80
2022-08-25T04:39:50.644Z,15.80
2022-08-25T04:42:18.021Z,15.90
2022-08-25T04:44:45.380Z,15.90
2022-08-25T04:47:12.744Z,15.90
2022-08-25T04:49:40.230Z,15.90
2022-08-25T04:52:13.164Z,15.90
2022-08-25T04:54:42.548Z,15.90
2022-08-25T04:57:09.969Z,15.90
2022-08-25T04:59:37.481Z,15.90
2022-08-25T05:02:06.743Z,15.90
2022-08-25T05:04:35.276Z,15.90
2022-08-25T05:07:03.147Z,15.90
2022-08-25T05:09:32.666Z,15.90
2022-08-25T05:12:02.225Z,15.90
2022-08-25T05:14:32.073Z,15.90
2022-08-25T05:16:59.607Z,15.90
2022-08-25T05:19:27.068Z,15.90
2022-08-25T05:21:54.622Z,15.90
2022-08-25T05:24:25.350Z,15.90
2022-08-25T05:26:52.789Z,15.90
2022-08-25T05:29:20.252Z,16.00
2022-08-25T05:31:50.640Z,16.00
2022-08-25T05:34:19.636Z,16.00
2022-08-25T05:36:47.789Z,16.00
2022-08-25T05:39:15.192Z,16.10
2022-08-25T05:41:42.540Z,16.10
2022-08-25T05:44:10.000Z,16.10
2022-08-25T05:46:37.361Z,16.10
2022-08-25T05:49:04.807Z,16.10
2022-08-25T05:51:32.149Z,16.10
2022-08-25T05:53:59.975Z,16.10
2022-08-25T05:56:27.311Z,16.20
2022-08-25T05:58:54.988Z,16.20
2022-08-25T06:01:46.234Z,16.20
2022-08-25T06:04:15.556Z,16.10
2022-08-25T06:06:42.942Z,16.20
2022-08-25T06:09:10.949Z,16.20
2022-08-25T06:11:40.089Z,16.10
2022-08-25T06:14:08.659Z,16.10
2022-08-25T06:16:36.327Z,16.20
2022-08-25T06:19:04.317Z,16.20
2022-08-25T06:21:31.947Z,16.10
2022-08-25T06:23:59.316Z,16.20
2022-08-25T06:26:26.953Z,16.20
2022-08-25T06:28:54.780Z,16.10
2022-08-25T06:31:22.535Z,16.20
2022-08-25T06:33:50.682Z,16.10
2022-08-25T06:36:19.213Z,16.20
2022-08-25T06:38:46.893Z,16.20
2022-08-25T06:41:14.641Z,16.20
2022-08-25T06:43:47.417Z,16.20
2022-08-25T06:46:18.006Z,16.20
2022-08-25T06:48:45.459Z,16.30
2022-08-25T06:51:14.372Z,16.30
2022-08-25T06:53:42.869Z,16.20
2022-08-25T06:56:10.838Z,16.30
2022-08-25T06:58:38.842Z,16.30
2022-08-25T07:01:19.611Z,16.30
2022-08-25T07:03:48.497Z,16.30
2022-08-25T07:06:18.310Z,16.30
2022-08-25T07:08:46.558Z,16.40
2022-08-25T07:11:16.440Z,16.40
2022-08-25T07:13:45.313Z,16.40
2022-08-25T07:16:13.781Z,16.40
2022-08-25T07:18:41.396Z,16.50
2022-08-25T07:21:09.343Z,16.50
2022-08-25T07:23:37.101Z,16.50
2022-08-25T07:26:36.206Z,16.50
2022-08-25T07:29:08.527Z,16.50
2022-08-25T07:31:36.023Z,16.50
2022-08-25T07:34:23.774Z,16.50
2022-08-25T07:36:53.978Z,16.50
2022-08-25T07:39:22.270Z,16.50
2022-08-25T07:41:51.897Z,16.50
2022-08-25T07:44:20.899Z,16.50
2022-08-25T07:46:48.695Z,16.50
2022-08-25T07:49:23.274Z,16.40
2022-08-25T07:52:05.384Z,16.40
2022-08-25T07:54:38.004Z,16.50
2022-08-25T07:57:07.772Z,16.50
2022-08-25T07:59:39.323Z,16.50
2022-08-25T08:02:08.306Z,16.50
2022-08-25T08:04:37.138Z,16.40
2022-08-25T08:07:04.954Z,16.40
2022-08-25T08:09:39.448Z,16.40
2022-08-25T08:12:07.050Z,16.50
2022-08-25T08:14:34.651Z,16.40
2022-08-25T08:17:11.423Z,16.50
2022-08-25T08:19:41.742Z,16.50
2022-08-25T08:22:15.103Z,16.50
2022-08-25T08:24:54.507Z,16.50
2022-08-25T08:27:24.204Z,16.50
2022-08-25T08:29:52.329Z,16.50
2022-08-25T08:32:20.090Z,16.50
2022-08-25T08:34:52.883Z,16.50
2022-08-25T08:37:22.959Z,16.60
2022-08-25T08:39:52.661Z,16.60
2022-08-25T08:42:22.346Z,16.70
2022-08-25T08:45:02.018Z,16.70
2022-08-25T08:47:33.232Z,16.80
2022-08-25T08:50:23.999Z,16.80
2022-08-25T08:52:55.153Z,16.80
2022-08-25T08:55:31.710Z,16.80
2022-08-25T08:58:01.159Z,16.80
2022-08-25T09:00:28.836Z,16.90
2022-08-25T09:03:07.333Z,16.90
2022-08-25T09:05:43.839Z,16.90
2022-08-25T09:08:14.819Z,17.00
2022-08-25T09:11:00.345Z,17.00
2022-08-25T09:13:27.863Z,17.00
2022-08-25T09:16:20.587Z,17.00
2022-08-25T09:19:04.845Z,17.10
2022-08-25T09:21:33.939Z,17.10
2022-08-25T09:24:13.114Z,17.10
2022-08-25T09:26:47.523Z,17.20
2022-08-25T09:29:19.270Z,17.20
2022-08-25T09:31:48.537Z,17.20
2022-08-25T09:34:20.286Z,17.30
2022-08-25T09:36:50.816Z,17.30
2022-08-25T09:39:20.609Z,17.30
2022-08-25T09:41:51.260Z,17.30
2022-08-25T09:44:20.900Z,17.30
2022-08-25T09:47:08.522Z,17.30
2022-08-25T09:49:47.400Z,17.30
2022-08-25T09:52:23.906Z,17.30
2022-08-25T09:54:53.768Z,17.30
2022-08-25T09:57:57.166Z,17.30
2022-08-25T10:00:35.039Z,17.30
2022-08-25T10:03:24.881Z,17.30
2022-08-25T10:05:56.304Z,17.30
2022-08-25T10:08:33.377Z,17.30
2022-08-25T10:11:02.220Z,17.30
2022-08-25T10:13:34.116Z,17.30
2022-08-25T10:16:19.949Z,17.20
2022-08-25T10:19:00.027Z,17.30
2022-08-25T10:21:27.658Z,17.30
2022-08-25T10:23:56.357Z,17.30
2022-08-25T10:26:43.006Z,17.30
2022-08-25T10:29:30.779Z,17.30
2022-08-25T10:32:07.105Z,17.40
2022-08-25T10:34:51.306Z,17.40
2022-08-25T10:37:33.261Z,17.40
2022-08-25T10:40:13.258Z,17.40
2022-08-25T10:43:03.250Z,17.40
2022-08-25T10:45:44.374Z,17.50
2022-08-25T10:48:30.834Z,17.60
2022-08-25T10:51:01.430Z,17.70
2022-08-25T10:53:47.824Z,17.70
2022-08-25T10:56:20.935Z,17.70
2022-08-25T10:59:04.764Z,17.90
2022-08-25T11:01:44.097Z,18.00
2022-08-25T11:04:45.088Z,18.10
2022-08-25T11:07:25.185Z,18.20
2022-08-25T11:09:54.992Z,18.30
2022-08-25T11:12:25.127Z,18.40
2022-08-25T11:14:54.194Z,18.40
2022-08-25T11:17:41.893Z,18.40
2022-08-25T11:20:19.865Z,18.40
2022-08-25T11:23:03.330Z,18.50
2022-08-25T11:25:35.224Z,18.50
2022-08-25T11:28:05.700Z,18.50
2022-08-25T11:30:33.341Z,18.50
2022-08-25T11:33:01.130Z,18.60
2022-08-25T11:35:32.778Z,18.70
2022-08-25T11:38:09.582Z,18.90
2022-08-25T11:40:44.507Z,19.10
2022-08-25T11:43:27.351Z,19.30
2022-08-25T11:46:10.218Z,19.60
2022-08-25T11:48:40.961Z,19.90
2022-08-25T11:51:25.953Z,20.20
2022-08-25T11:54:16.938Z,20.40
2022-08-25T11:56:51.947Z,20.50
2022-08-25T11:59:37.922Z,20.50
2022-08-25T12:02:06.291Z,20.60
2022-08-25T12:04:45.215Z,20.70
2022-08-25T12:07:18.510Z,20.90
2022-08-25T12:09:53.756Z,21.10
2022-08-25T12:12:29.024Z,21.20
2022-08-25T12:15:13.400Z,21.20
2022-08-25T12:17:41.019Z,21.30
2022-08-25T12:20:08.697Z,21.60
2022-08-25T12:22:37.515Z,21.90
2022-08-25T12:25:09.911Z,21.90
2022-08-25T12:27:49.180Z,21.80
2022-08-25T12:30:29.115Z,21.80
2022-08-25T12:33:16.795Z,21.80
2022-08-25T12:35:54.466Z,22.00
2022-08-25T12:38:29.025Z,22.00
2022-08-25T12:41:03.015Z,22.30
2022-08-25T12:43:33.987Z,22.50
2022-08-25T12:46:23.867Z,22.80
2022-08-25T12:49:10.119Z,23.10
2022-08-25T12:51:40.313Z,23.20
2022-08-25T12:54:10.850Z,23.40
2022-08-25T12:56:42.190Z,23.30
2022-08-25T12:59:20.242Z,23.10
2022-08-25T13:01:52.045Z,23.00
2022-08-25T13:04:30.885Z,23.20
2022-08-25T13:07:21.485Z,23.20
2022-08-25T13:10:08.107Z,22.90
2022-08-25T13:12:48.277Z,23.10
2022-08-25T13:15:24.997Z,23.60
2022-08-25T13:17:52.819Z,23.90
2022-08-25T13:20:24.112Z,24.20
2022-08-25T13:22:57.349Z,24.40
2022-08-25T13:25:27.738Z,24.90
2022-08-25T13:28:04.676Z,25.50
2022-08-25T13:30:33.733Z,26.10
2022-08-25T13:33:20.229Z,26.50
2022-08-25T13:36:10.532Z,26.90
2022-08-25T13:38:38.137Z,27.50
2022-08-25T13:41:08.158Z,28.00
2022-08-25T13:43:38.086Z,28.30
2022-08-25T13:46:06.248Z,28.60
2022-08-25T13:48:33.710Z,28.80
2022-08-25T13:51:07.737Z,28.50
2022-08-25T13:53:36.329Z,28.20
2022-08-25T13:56:04.144Z,28.00
2022-08-25T13:58:44.830Z,27.80
2022-08-25T14:01:45.135Z,27.70
2022-08-25T14:04:22.624Z,27.90
2022-08-25T14:07:05.193Z,28.20
2022-08-25T14:09:39.096Z,28.60
2022-08-25T14:12:08.804Z,29.00
2022-08-25T14:14:37.023Z,29.20
2022-08-25T14:17:16.308Z,29.40
2022-08-25T14:19:52.050Z,29.70
2022-08-25T14:22:19.421Z,29.70
2022-08-25T14:24:46.835Z,29.50
2022-08-25T14:27:14.218Z,28.90
2022-08-25T14:29:41.649Z,28.40
2022-08-25T14:32:09.987Z,27.70
2022-08-25T14:34:39.535Z,27.00
2022-08-25T14:37:15.592Z,26.50
2022-08-25T14:39:44.045Z,26.30
2022-08-25T14:42:12.329Z,26.50
2022-08-25T14:44:39.935Z,26.60
2022-08-25T14:47:07.836Z,26.50
2022-08-25T14:49:37.562Z,26.60
2022-08-25T14:52:08.248Z,26.50
2022-08-25T14:54:37.556Z,26.40
2022-08-25T14:57:08.249Z,26.50
2022-08-25T14:59:36.316Z,26.80
2022-08-25T15:02:13.130Z,27.10
2022-08-25T15:04:42.428Z,27.30
2022-08-25T15:07:34.975Z,27.40
2022-08-25T15:10:02.401Z,27.20
2022-08-25T15:12:46.651Z,26.70
2022-08-25T15:15:15.393Z,26.20
2022-08-25T15:17:44.621Z,25.70
2022-08-25T15:20:12.711Z,25.30
2022-08-25T15:22:43.753Z,24.90
2022-08-25T15:25:11.671Z,24.60
2022-08-25T15:27:39.111Z,24.40
2022-08-25T15:30:06.979Z,24.20
2022-08-25T15:32:34.382Z,24.00
2022-08-25T15:35:01.821Z,23.80
2022-08-25T15:37:29.347Z,23.60
2022-08-25T15:39:57.107Z,23.50
2022-08-25T15:42:25.961Z,23.30
2022-08-25T15:44:54.633Z,23.20
2022-08-25T15:47:24.127Z,23.10
2022-08-25T15:49:59.929Z,23.00
2022-08-25T15:52:31.095Z,22.90
2022-08-25T15:55:13.084Z,22.80
2022-08-25T15:57:40.450Z,22.80
2022-08-25T16:00:11.980Z,22.70
2022-08-25T16:02:41.159Z,22.70
2022-08-25T16:05:09.266Z,22.70
2022-08-25T16:07:37.164Z,22.60
2022-08-25T16:10:05.125Z,22.60
2022-08-25T16:12:32.550Z,22.60
2022-08-25T16:15:00.148Z,22.50
2022-08-25T16:17:27.708Z,22.50
2022-08-25T16:19:55.154Z,22.40
2022-08-25T16:22:22.719Z,22.40
2022-08-25T16:24:50.279Z,22.40
2022-08-25T16:27:18.186Z,22.40
2022-08-25T16:29:45.740Z,22.50
2022-08-25T16:32:13.901Z,22.50
2022-08-25T16:34:42.068Z,22.50
2022-08-25T16:37:09.505Z,22.50
2022-08-25T16:39:37.267Z,22.50
2022-08-25T16:42:07.517Z,22.50
2022-08-25T16:44:35.279Z,22.40
2022-08-25T16:47:03.228Z,22.30
2022-08-25T16:49:31.013Z,22.20
2022-08-25T16:51:58.525Z,22.10
2022-08-25T16:54:44.897Z,22.00
2022-08-25T16:57:12.600Z,21.90
2022-08-25T16:59:40.217Z,21.90
2022-08-25T17:02:07.646Z,21.80
2022-08-25T17:04:34.988Z,21.70
2022-08-25T17:07:02.560Z,21.60
2022-08-25T17:09:30.828Z,21.50
2022-08-25T17:11:58.308Z,21.40
2022-08-25T17:14:26.350Z,21.30
2022-08-25T17:16:55.194Z,21.20
2022-08-25T17:19:24.903Z,21.10
2022-08-25T17:21:54.410Z,21.10
2022-08-25T17:24:29.560Z,21.00
2022-08-25T17:26:59.196Z,20.90
2022-08-25T17:29:27.143Z,20.80
2022-08-25T17:31:54.539Z,20.80
2022-08-25T17:34:40.830Z,20.70
2022-08-25T17:37:08.988Z,20.50
2022-08-25T17:39:36.674Z,20.50
2022-08-25T17:42:04.538Z,20.30
2022-08-25T17:44:31.989Z,20.30
2022-08-25T17:47:00.455Z,20.10
2022-08-25T17:49:27.947Z,20.10
2022-08-25T17:51:55.360Z,20.00
2022-08-25T17:54:22.723Z,19.90
2022-08-25T17:56:55.896Z,19.80
2022-08-25T17:59:23.597Z,19.80
2022-08-25T18:01:55.332Z,19.80
2022-08-25T18:04:23.248Z,19.60
2022-08-25T18:06:54.889Z,19.60
2022-08-25T18:09:22.774Z,19.60
2022-08-25T18:11:52.552Z,19.60
2022-08-25T18:14:25.269Z,19.50
2022-08-25T18:16:53.949Z,19.40
2022-08-25T18:19:21.703Z,19.30
2022-08-25T18:22:08.727Z,19.20
2022-08-25T18:24:45.105Z,19.10
2022-08-25T18:27:13.655Z,19.00
2022-08-25T18:29:41.874Z,18.90
2022-08-25T18:32:09.743Z,18.80
2022-08-25T18:34:40.037Z,18.70
2022-08-25T18:37:26.623Z,18.60
2022-08-25T18:40:12.531Z,18.50
2022-08-25T18:42:41.770Z,18.50
2022-08-25T18:45:09.546Z,18.40
2022-08-25T18:47:57.622Z,18.30
2022-08-25T18:50:26.328Z,18.30
2022-08-25T18:52:55.250Z,18.30
2022-08-25T18:55:23.276Z,18.20
2022-08-25T18:57:51.410Z,18.30
2022-08-25T19:00:20.954Z,18.20
2022-08-25T19:02:49.541Z,18.20
2022-08-25T19:05:18.774Z,18.20
2022-08-25T19:07:47.572Z,18.20
2022-08-25T19:10:20.628Z,18.10
2022-08-25T19:12:52.097Z,18.10
2022-08-25T19:15:24.774Z,18.00
2022-08-25T19:17:53.224Z,17.90
2022-08-25T19:20:21.367Z,17.80
2022-08-25T19:22:49.329Z,17.70
2022-08-25T19:25:20.666Z,17.60
2022-08-25T19:27:48.589Z,17.50
2022-08-25T19:30:17.512Z,17.40
2022-08-25T19:32:45.682Z,17.20
2022-08-25T19:35:20.570Z,17.20
2022-08-25T19:37:50.819Z,17.10
2022-08-25T19:40:20.492Z,17.00
2022-08-25T19:42:51.711Z,16.90
2022-08-25T19:45:23.725Z,16.80
2022-08-25T19:47:51.462Z,16.70
2022-08-25T19:50:21.620Z,16.70
2022-08-25T19:52:49.807Z,16.60
2022-08-25T19:55:17.663Z,16.50
2022-08-25T19:57:45.175Z,16.40
2022-08-25T20:00:24.035Z,16.40
2022-08-25T20:02:51.846Z,16.30
2022-08-25T20:05:23.912Z,16.20
2022-08-25T20:07:52.681Z,16.20
2022-08-25T20:10:21.074Z,16.10
2022-08-25T20:12:48.455Z,16.10
2022-08-25T20:15:16.438Z,15.90
2022-08-25T20:17:45.098Z,15.90
2022-08-25T20:20:19.583Z,15.90
2022-08-25T20:22:47.470Z,15.80
2022-08-25T20:25:24.915Z,15.70
2022-08-25T20:27:55.418Z,15.70
2022-08-25T20:30:27.330Z,15.60
2022-08-25T20:32:56.750Z,15.60
2022-08-25T20:35:26.719Z,15.50
2022-08-25T20:37:55.389Z,15.50
2022-08-25T20:40:25.775Z,15.40
2022-08-25T20:42:54.503Z,15.30
2022-08-25T20:45:21.934Z,15.30
2022-08-25T20:47:50.539Z,15.20
2022-08-25T20:50:18.571Z,15.20
2022-08-25T20:52:46.271Z,15.20
2022-08-25T20:55:18.990Z,15.10
2022-08-25T20:57:46.950Z,15.10
2022-08-25T21:00:15.425Z,15.00
2022-08-25T21:02:46.317Z,14.90
2022-08-25T21:05:14.324Z,14.90
2022-08-25T21:07:42.617Z,14.80
2022-08-25T21:10:14.158Z,14.80
2022-08-25T21:12:42.925Z,14.70
2022-08-25T21:15:11.086Z,14.60
2022-08-25T21:17:38.607Z,14.60
2022-08-25T21:20:07.337Z,14.60
2022-08-25T21:22:35.382Z,14.50
2022-08-25T21:25:03.577Z,14.40
2022-08-25T21:27:31.265Z,14.30
2022-08-25T21:29:58.607Z,14.30
2022-08-25T21:32:26.033Z,14.20
2022-08-25T21:34:54.721Z,14.10
2022-08-25T21:37:22.479Z,14.10
2022-08-25T21:39:50.356Z,14.00
2022-08-25T21:42:18.796Z,14.00
2022-08-25T21:44:46.169Z,13.90
2022-08-25T21:47:13.719Z,13.80
2022-08-25T21:49:42.250Z,13.80
2022-08-25T21:52:09.822Z,13.70
2022-08-25T21:54:37.767Z,13.70
2022-08-25T21:57:05.605Z,13.70
2022-08-25T21:59:37.781Z,13.60
2022-08-25T22:02:10.094Z,13.60
2022-08-25T22:04:38.842Z,13.60
2022-08-25T22:07:07.192Z,13.50
2022-08-25T22:09:35.630Z,13.50
2022-08-25T22:12:03.547Z,13.50
2022-08-25T22:14:31.188Z,13.40
2022-08-25T22:16:58.600Z,13.40
2022-08-25T22:19:26.664Z,13.30
2022-08-25T22:21:54.631Z,13.20
2022-08-25T22:24:22.192Z,13.20
2022-08-25T22:26:49.713Z,13.20
2022-08-25T22:29:24.861Z,13.10
2022-08-25T22:31:54.055Z,13.10
2022-08-25T22:34:30.717Z,13.10
2022-08-25T22:37:00.599Z,13.00
2022-08-25T22:39:28.946Z,13.00
2022-08-25T22:41:56.709Z,12.90
2022-08-25T22:44:25.781Z,12.90
2022-08-25T22:46:53.703Z,12.90
2022-08-25T22:49:21.990Z,12.80
2022-08-25T22:51:49.978Z,12.90
2022-08-25T22:54:18.326Z,12.80
2022-08-25T22:56:45.852Z,12.70
2022-08-25T22:59:13.591Z,12.70
2022-08-25T23:01:42.856Z,12.70
2022-08-25T23:04:10.932Z,12.70
2022-08-25T23:06:38.459Z,12.60
2022-08-25T23:09:06.908Z,12.60
2022-08-25T23:11:35.884Z,12.60
2022-08-25T23:14:09.474Z,12.50
2022-08-25T23:16:41.791Z,12.50
2022-08-25T23:19:10.462Z,12.50
2022-08-25T23:21:56.768Z,12.50
2022-08-25T23:24:26.963Z,12.50
2022-08-25T23:26:58.885Z,12.40
2022-08-25T23:29:27.619Z,12.30
2022-08-25T23:31:55.499Z,12.30
2022-08-25T23:34:23.486Z,12.30
2022-08-25T23:36:51.561Z,12.30
2022-08-25T23:39:19.026Z,12.30
2022-08-25T23:41:50.152Z,12.20
2022-08-25T23:44:18.750Z,12.20
2022-08-25T23:46:47.459Z,12.20
2022-08-25T23:49:18.237Z,12.10
2022-08-25T23:51:47.103Z,12.10
2022-08-25T23:54:16.232Z,12.00
2022-08-25T23:56:51.700Z,12.00
2022-08-25T23:59:24.031Z,12.00
